Time;durP1;ratioP1;P1;durP2;ratioP2;P2;SDS_P1;SDS_P2;PMS_P1;PMS_P2;Temp;Humidity;BMP_temperature;BMP_pressure;BME280_temperature;BME280_humidity;BME280_pressure;Samples;Min_cycle;Max_cycle;Signal;HPM_P1;HPM_P2
2023/03/20 00:01:59;;;;;;;2.42;0.80;;;;;;;19.67;38.25;101957.25;16119638;19;129483;-56
2023/03/20 00:07:21;;;;;;;4.82;0.70;;;;;;;19.65;37.86;101956.63;16115574;19;130535;-59
2023/03/20 00:12:45;;;;;;;1.52;0.43;;;;;;;19.63;38.34;101944.91;16113396;19;130572;-58
2023/03/20 00:18:17;;;;;;;3.20;0.60;;;;;;;19.62;37.92;101943.19;16117450;19;130293;-57
2023/03/20 00:23:39;;;;;;;1.13;0.40;;;;;;;19.57;38.19;101928.31;16113677;19;130927;-58
2023/03/20 00:29:03;;;;;;;1.38;0.40;;;;;;;19.55;37.99;101919.34;16118069;19;129653;-58
2023/03/20 00:34:28;;;;;;;1.40;0.70;;;;;;;19.52;38.35;101920.66;16118024;19;131244;-57
2023/03/20 00:39:50;;;;;;;1.47;0.40;;;;;;;19.49;38.41;101935.00;16119254;19;129691;-58
2023/03/20 00:45:18;;;;;;;2.67;0.45;;;;;;;19.48;38.29;101933.28;16115263;19;129276;-57
2023/03/20 00:50:40;;;;;;;0.73;0.40;;;;;;;19.46;38.00;101938.22;16113064;19;130664;-58
2023/03/20 00:56:02;;;;;;;2.08;0.57;;;;;;;19.43;37.95;101977.56;16115945;19;129815;-58
2023/03/20 01:01:24;;;;;;;2.63;0.50;;;;;;;19.41;38.01;101968.59;16113887;19;130478;-58
2023/03/20 01:06:46;;;;;;;4.43;0.57;;;;;;;19.39;37.95;101938.28;16114566;19;129401;-58
2023/03/20 01:12:13;;;;;;;1.17;0.47;;;;;;;19.37;38.31;101940.47;16113939;19;129893;-58
2023/03/20 01:17:34;;;;;;;1.08;0.40;;;;;;;19.35;37.98;101937.88;16116505;19;130393;-58
2023/03/20 01:22:56;;;;;;;0.98;0.30;;;;;;;19.32;38.45;101918.91;16113415;19;129560;-58
2023/03/20 01:28:22;;;;;;;0.98;0.35;;;;;;;19.32;38.15;101915.31;16113201;19;134098;-58
2023/03/20 01:33:44;;;;;;;2.17;0.40;;;;;;;19.30;38.36;101904.44;16111846;19;130289;-58
2023/03/20 01:39:08;;;;;;;1.15;0.40;;;;;;;19.29;38.15;101915.75;16114824;19;131204;-58
2023/03/20 01:44:32;;;;;;;0.90;0.40;;;;;;;19.27;38.16;101913.22;16111620;19;130759;-58
2023/03/20 01:50:15;;;;;;;1.85;0.50;;;;;;;19.26;38.13;101908.72;16113881;19;129768;-59
2023/03/20 01:55:40;;;;;;;1.10;0.40;;;;;;;19.22;37.95;101926.91;16109527;19;129743;-57
2023/03/20 02:01:05;;;;;;;0.50;0.30;;;;;;;19.21;38.24;101941.84;16111616;19;129983;-58
2023/03/20 02:06:28;;;;;;;0.87;0.40;;;;;;;19.19;38.32;101960.63;16113354;19;129893;-58
2023/03/20 02:11:51;;;;;;;1.50;0.50;;;;;;;19.20;38.46;101973.44;16109689;19;130707;-58
2023/03/20 02:17:13;;;;;;;1.20;0.28;;;;;;;19.16;38.39;101945.25;16115931;19;130373;-58
2023/03/20 02:22:48;;;;;;;0.55;0.30;;;;;;;19.15;38.07;101929.69;16110174;19;129848;-57
2023/03/20 02:28:25;;;;;;;0.68;0.30;;;;;;;19.14;37.92;101927.16;16112914;19;130152;-58
2023/03/20 02:34:16;;;;;;;0.68;0.30;;;;;;;19.12;37.94;101924.63;16108358;19;131361;-59
2023/03/20 02:39:52;;;;;;;0.75;0.40;;;;;;;19.12;38.00;101915.44;16106138;19;129622;-58
2023/03/20 02:45:46;;;;;;;0.77;0.47;;;;;;;19.07;38.04;101908.66;16107815;19;129440;-58
2023/03/20 02:51:18;;;;;;;1.38;0.30;;;;;;;19.07;38.03;101908.66;16104001;19;131779;-57
2023/03/20 02:56:48;;;;;;;0.32;0.30;;;;;;;19.05;37.96;101896.94;16109162;19;130311;-58
2023/03/20 03:02:19;;;;;;;0.60;0.30;;;;;;;19.04;38.04;101892.47;16105130;19;130335;-57
2023/03/20 03:07:45;;;;;;;0.38;0.30;;;;;;;19.04;38.19;101889.69;16109154;19;129826;-58
2023/03/20 03:13:14;;;;;;;0.63;0.20;;;;;;;19.02;38.03;101858.56;16109980;19;132585;-58
2023/03/20 03:18:39;;;;;;;0.55;0.40;;;;;;;19.00;38.10;101890.38;16123589;19;130481;-58
2023/03/20 03:24:02;;;;;;;0.50;0.40;;;;;;;18.98;38.30;101890.56;16123716;19;130500;-56
2023/03/20 03:29:30;;;;;;;1.52;0.60;;;;;;;18.99;38.12;101902.53;16122922;19;131115;-58
2023/03/20 03:34:53;;;;;;;0.75;0.30;;;;;;;18.96;37.95;101908.53;16118539;19;130427;-57
2023/03/20 03:40:26;;;;;;;0.20;0.20;;;;;;;18.96;38.40;101895.50;16121191;19;130418;-58
2023/03/20 03:45:56;;;;;;;3.83;0.30;;;;;;;18.93;38.02;101890.41;16121217;19;129775;-58
2023/03/20 03:51:22;;;;;;;0.55;0.30;;;;;;;18.90;37.93;101872.28;16113587;19;130876;-58
2023/03/20 03:56:47;;;;;;;0.40;0.40;;;;;;;18.90;38.15;101879.78;16120087;19;130221;-57
2023/03/20 04:02:09;;;;;;;0.47;0.30;;;;;;;18.88;38.09;101881.91;16112409;19;130820;-58
2023/03/20 04:07:31;;;;;;;0.70;0.45;;;;;;;18.87;37.90;101886.63;16119759;19;131529;-57
2023/03/20 04:12:53;;;;;;;0.65;0.30;;;;;;;18.86;38.14;101886.81;16122355;19;132838;-56
2023/03/20 04:18:17;;;;;;;1.00;0.38;;;;;;;18.85;37.91;101879.59;16120652;19;130716;-58
2023/03/20 04:23:38;;;;;;;6.60;0.40;;;;;;;18.83;38.15;101867.91;16118299;19;129729;-58
2023/03/20 04:29:00;;;;;;;0.70;0.50;;;;;;;18.81;38.04;101875.59;16121349;19;130497;-57
2023/03/20 04:34:23;;;;;;;0.38;0.30;;;;;;;18.81;38.19;101872.81;16111658;19;131060;-57
2023/03/20 04:39:45;;;;;;;0.60;0.30;;;;;;;18.79;38.28;101863.88;16118520;19;128977;-60
2023/03/20 04:45:08;;;;;;;1.27;0.47;;;;;;;18.76;38.01;101857.69;16121534;19;130141;-57
2023/03/20 04:50:30;;;;;;;0.88;0.30;;;;;;;18.75;37.86;101856.00;16117040;19;130378;-58
2023/03/20 04:55:51;;;;;;;0.38;0.38;;;;;;;18.74;38.01;101851.50;16119399;19;131280;-58
2023/03/20 05:01:13;;;;;;;0.32;0.30;;;;;;;18.73;38.14;101858.13;16120660;19;133636;-58
2023/03/20 05:06:35;;;;;;;0.50;0.40;;;;;;;18.72;38.24;101858.38;16118594;19;129319;-56
2023/03/20 05:11:57;;;;;;;1.05;0.40;;;;;;;18.71;38.16;101851.94;16115308;19;131107;-57
2023/03/20 05:17:20;;;;;;;1.13;0.50;;;;;;;18.70;37.95;101847.50;16115468;19;131225;-57
2023/03/20 05:22:42;;;;;;;0.52;0.30;;;;;;;18.68;38.14;101855.19;16113833;19;131836;-58
2023/03/20 05:28:04;;;;;;;1.17;0.65;;;;;;;18.68;38.27;101859.88;16112716;19;129510;-58
2023/03/20 05:33:26;;;;;;;0.57;0.40;;;;;;;18.66;37.81;101857.34;16113541;19;130653;-57
2023/03/20 05:38:48;;;;;;;1.27;0.40;;;;;;;18.65;38.14;101850.09;16109367;19;129810;-57
2023/03/20 05:44:10;;;;;;;2.42;0.65;;;;;;;18.64;38.10;101847.56;16110163;19;130978;-57
2023/03/20 05:49:31;;;;;;;0.77;0.50;;;;;;;18.63;38.19;101841.16;16112571;19;131194;-58
2023/03/20 05:54:53;;;;;;;2.30;0.70;;;;;;;18.61;37.90;101840.53;16114217;19;134248;-56
2023/03/20 06:00:16;;;;;;;0.93;0.60;;;;;;;18.61;38.20;101848.84;16115276;19;130866;-57
2023/03/20 06:05:38;;;;;;;1.58;0.60;;;;;;;18.59;37.97;101856.50;16109625;19;129903;-57
2023/03/20 06:10:59;;;;;;;0.95;0.50;;;;;;;18.73;38.02;101865.59;16114193;19;129927;-56
2023/03/20 06:16:21;;;;;;;2.40;0.63;;;;;;;18.99;37.49;101861.78;16107534;19;129750;-56
2023/03/20 06:21:43;;;;;;;6.63;1.25;;;;;;;19.18;36.97;101871.00;16109489;19;129355;-56
2023/03/20 06:27:05;;;;;;;13.68;1.80;;;;;;;19.31;36.09;101871.97;16113032;19;131182;-57
2023/03/20 06:32:26;;;;;;;10.77;2.40;;;;;;;19.35;35.73;101876.84;16113335;19;129989;-53
2023/03/20 06:37:48;;;;;;;18.30;2.80;;;;;;;19.38;35.51;101881.13;16109133;19;130141;-54
2023/03/20 06:43:11;;;;;;;12.15;2.10;;;;;;;19.37;35.69;101884.97;16108408;19;129726;-56
2023/03/20 06:48:33;;;;;;;14.27;2.60;;;;;;;19.32;35.71;101876.47;16117327;19;130547;-55
2023/03/20 06:53:55;;;;;;;8.90;1.88;;;;;;;19.28;35.73;101881.63;16126200;19;132149;-56
2023/03/20 06:59:17;;;;;;;6.72;1.98;;;;;;;19.22;36.05;101888.06;16124702;19;130239;-56
2023/03/20 07:04:39;;;;;;;13.05;2.20;;;;;;;19.16;36.14;101888.94;16122462;19;130416;-56
2023/03/20 07:10:03;;;;;;;11.55;2.03;;;;;;;19.11;35.98;101899.88;16124403;19;130963;-56
2023/03/20 07:15:26;;;;;;;12.73;2.42;;;;;;;19.05;36.28;101910.81;16125693;19;129961;-55
2023/03/20 07:20:47;;;;;;;10.27;2.17;;;;;;;19.03;35.98;101920.41;16122135;19;130537;-55
2023/03/20 07:26:09;;;;;;;7.65;2.15;;;;;;;18.98;35.97;101921.09;16124956;19;129472;-54
2023/03/20 07:31:31;;;;;;;11.02;2.38;;;;;;;18.95;36.56;101923.47;16125128;19;129343;-56
2023/03/20 07:36:53;;;;;;;10.45;2.28;;;;;;;18.90;36.36;101924.13;16123949;19;132417;-55
2023/03/20 07:42:15;;;;;;;9.70;2.00;;;;;;;18.86;36.55;101912.66;16127189;19;129334;-54
2023/03/20 07:47:37;;;;;;;7.45;1.90;;;;;;;18.83;36.35;101912.25;16127176;19;129353;-56
2023/03/20 07:52:59;;;;;;;8.63;1.92;;;;;;;18.84;36.09;101919.47;16125884;19;130326;-54
2023/03/20 07:58:21;;;;;;;7.30;2.17;;;;;;;18.83;36.16;101917.78;16123218;19;129305;-57
2023/03/20 08:03:43;;;;;;;7.25;2.05;;;;;;;18.90;35.93;101918.59;16123259;19;130123;-56
2023/03/20 08:09:05;;;;;;;7.00;1.58;;;;;;;19.03;36.18;101928.72;16123642;19;131617;-55
2023/03/20 08:14:27;;;;;;;9.90;1.75;;;;;;;19.12;35.83;101934.84;16123454;19;129393;-57
2023/03/20 08:19:49;;;;;;;10.18;1.85;;;;;;;19.24;35.89;101935.00;16117294;19;130029;-57
2023/03/20 08:25:11;;;;;;;5.18;1.42;;;;;;;19.34;35.69;101929.81;16120211;19;129819;-53
2023/03/20 08:30:32;;;;;;;9.70;1.60;;;;;;;19.40;35.68;101933.59;16119793;19;130253;-55
2023/03/20 08:35:58;;;;;;;11.00;1.50;;;;;;;19.41;35.66;101929.75;16118686;19;131369;-55
2023/03/20 08:41:20;;;;;;;7.10;1.10;;;;;;;19.38;35.67;101931.91;16118117;19;129481;-54
2023/03/20 08:46:43;;;;;;;7.25;1.20;;;;;;;19.34;35.54;101936.19;16113232;19;129972;-55
2023/03/20 08:52:05;;;;;;;7.38;1.60;;;;;;;19.30;35.87;101934.97;16115929;19;130033;-56
2023/03/20 08:57:27;;;;;;;10.63;1.58;;;;;;;19.26;35.61;101944.81;16116022;19;130326;-52
2023/03/20 09:02:50;;;;;;;6.13;1.50;;;;;;;19.22;35.80;101946.31;16117930;19;129498;-50
2023/03/20 09:08:12;;;;;;;6.30;1.40;;;;;;;19.17;35.91;101941.41;16117104;19;129301;-54
2023/03/20 09:13:34;;;;;;;9.02;1.63;;;;;;;19.17;36.00;101946.13;16118763;19;129895;-54
2023/03/20 09:18:56;;;;;;;14.80;1.75;;;;;;;19.21;35.91;101952.94;16123393;19;131004;-54
2023/03/20 09:24:18;;;;;;;14.82;1.70;;;;;;;19.24;35.91;101954.44;16120735;19;132770;-55
2023/03/20 09:29:41;;;;;;;13.77;1.58;;;;;;;19.26;35.97;101950.34;16118180;19;129725;-52
2023/03/20 09:35:03;;;;;;;11.00;1.90;;;;;;;19.29;36.29;101955.47;16118033;19;129569;-53
2023/03/20 09:40:37;;;;;;;8.30;1.98;;;;;;;19.31;36.27;101956.09;16118810;19;129559;-56
2023/03/20 09:46:26;;;;;;;7.88;1.60;;;;;;;19.35;36.05;101940.66;16120221;19;129967;-56
2023/03/20 09:51:58;;;;;;;8.70;1.60;;;;;;;19.36;36.03;101936.81;16120739;19;130860;-55
2023/03/20 09:57:24;;;;;;;15.75;2.08;;;;;;;19.36;36.06;101941.53;16117488;19;129558;-50
2023/03/20 10:02:51;;;;;;;7.30;1.20;;;;;;;19.36;36.10;101938.75;16117310;19;129618;-54
2023/03/20 10:08:15;;;;;;;10.45;1.30;;;;;;;19.34;35.79;101936.19;16116136;19;130746;-50
2023/03/20 10:13:51;;;;;;;9.68;1.90;;;;;;;19.34;36.33;101933.41;16116368;19;129288;-52
2023/03/20 10:19:26;;;;;;;6.90;1.25;;;;;;;19.33;35.84;101917.00;16118629;19;131029;-55
2023/03/20 10:25:00;;;;;;;7.43;1.30;;;;;;;19.32;35.83;101906.97;16116486;19;131081;-56
2023/03/20 10:30:43;;;;;;;8.10;1.42;;;;;;;19.30;35.99;101893.34;16119379;19;130096;-56
2023/03/20 10:36:37;;;;;;;5.72;1.30;;;;;;;19.28;36.05;101901.03;16114419;19;131344;-54
2023/03/20 10:42:02;;;;;;;8.73;1.40;;;;;;;19.31;35.87;101883.09;16110986;19;130413;-52
2023/03/20 10:47:29;;;;;;;3.83;1.33;;;;;;;19.30;35.83;101879.47;16108839;19;130786;-53
2023/03/20 10:52:54;;;;;;;11.27;1.33;;;;;;;19.30;35.99;101882.25;16114408;19;131023;-53
2023/03/20 10:58:25;;;;;;;5.80;1.08;;;;;;;19.29;35.81;101888.88;16111889;19;130260;-51
2023/03/20 11:03:47;;;;;;;9.27;1.75;;;;;;;19.26;36.11;101881.00;16110629;19;129856;-53
2023/03/20 11:09:23;;;;;;;7.93;1.33;;;;;;;19.26;35.78;101878.22;16109406;19;130804;-54
2023/03/20 11:14:45;;;;;;;6.05;1.10;;;;;;;19.21;35.97;101878.91;16107953;19;129288;-54
2023/03/20 11:20:09;;;;;;;8.27;1.40;;;;;;;19.22;36.40;101879.75;16109525;19;131208;-49
2023/03/20 11:25:35;;;;;;;9.40;1.73;;;;;;;19.19;36.03;101878.25;16110039;19;130526;-51
2023/03/20 11:31:01;;;;;;;5.78;1.20;;;;;;;19.19;35.64;101869.94;16110843;19;129677;-52
2023/03/20 11:36:32;;;;;;;5.18;1.55;;;;;;;19.21;35.95;101866.94;16120262;19;130304;-48
2023/03/20 11:41:55;;;;;;;6.25;1.40;;;;;;;19.17;35.50;101858.19;16122416;19;129993;-49
2023/03/20 11:47:23;;;;;;;8.90;1.45;;;;;;;19.24;35.33;101855.41;16124044;19;131029;-50
2023/03/20 11:52:45;;;;;;;17.00;1.27;;;;;;;19.32;35.22;101849.53;16122923;19;130607;-55
2023/03/20 11:58:15;;;;;;;11.18;1.17;;;;;;;19.44;35.02;101840.50;16123976;19;130700;-55
2023/03/20 12:03:44;;;;;;;22.05;2.50;;;;;;;19.45;34.82;101836.63;16125953;19;129278;-54
2023/03/20 12:09:35;;;;;;;10.95;1.30;;;;;;;19.43;35.29;101825.75;16123017;19;129591;-58
2023/03/20 12:15:12;;;;;;;11.80;1.45;;;;;;;19.37;35.25;101830.31;16123410;19;130413;-56
2023/03/20 12:20:37;;;;;;;18.02;1.40;;;;;;;19.33;35.50;101823.50;16123248;19;131583;-58
2023/03/20 12:26:08;;;;;;;16.95;1.85;;;;;;;19.33;35.62;101820.72;16120745;19;131116;-58
2023/03/20 12:31:45;;;;;;;30.42;1.67;;;;;;;19.33;36.06;101812.41;16121812;19;130238;-63
2023/03/20 12:37:12;;;;;;;50.38;3.35;;;;;;;19.28;35.91;101806.72;16117362;19;129648;-52
2023/03/20 12:43:00;;;;;;;47.35;4.05;;;;;;;19.22;36.12;101793.75;16115740;19;130311;-39
2023/03/20 12:48:30;;;;;;;45.35;3.53;;;;;;;19.19;36.78;101788.66;16110399;19;129697;-40
2023/03/20 12:54:09;;;;;;;44.85;2.70;;;;;;;19.15;36.69;101785.47;16108756;19;129935;-39
2023/03/20 12:59:47;;;;;;;30.63;2.72;;;;;;;19.12;37.22;101783.16;16107712;19;130634;-39
2023/03/20 13:05:52;;;;;;;32.67;3.28;;;;;;;19.11;38.11;101780.59;16107352;19;130055;-39
2023/03/20 13:11:28;;;;;;;40.17;3.20;;;;;;;19.10;38.24;101784.44;16105056;19;130649;-38
2023/03/20 13:17:09;;;;;;;27.90;2.30;;;;;;;19.06;38.41;101782.16;16107004;19;131129;-38
2023/03/20 13:22:50;;;;;;;21.42;3.22;;;;;;;19.03;38.37;101784.50;16107551;19;131381;-39
2023/03/20 13:28:41;;;;;;;20.35;3.22;;;;;;;18.98;38.29;101782.44;16107184;19;129822;-39
2023/03/20 13:34:30;;;;;;;23.27;3.28;;;;;;;18.96;38.37;101783.75;16102840;19;130909;-39
2023/03/20 13:40:13;;;;;;;26.10;2.85;;;;;;;18.93;38.30;101779.50;16104607;19;130045;-39
2023/03/20 13:45:40;;;;;;;13.48;2.58;;;;;;;18.87;38.09;101775.72;16098777;19;132143;-38
2023/03/20 13:51:23;;;;;;;13.30;2.53;;;;;;;18.85;37.72;101761.22;16105632;19;130001;-39
2023/03/20 13:57:18;;;;;;;11.23;2.10;;;;;;;18.83;37.83;101773.63;16100385;19;129755;-39
2023/03/20 14:03:08;;;;;;;18.38;2.80;;;;;;;18.82;38.00;101766.38;16106160;19;131901;-40
2023/03/20 14:08:37;;;;;;;15.38;2.15;;;;;;;18.79;37.61;101755.75;16105044;19;130166;-39
2023/03/20 14:14:07;;;;;;;13.43;2.60;;;;;;;18.79;37.31;101764.06;16105315;19;132007;-39
2023/03/20 14:19:29;;;;;;;8.43;1.85;;;;;;;18.74;37.55;101748.13;16114213;19;129506;-39
2023/03/20 14:25:02;;;;;;;10.13;1.85;;;;;;;18.73;37.14;101747.25;16113830;19;130458;-41
2023/03/20 14:30:30;;;;;;;26.58;2.72;;;;;;;18.73;36.80;101747.25;16114734;19;131425;-39
2023/03/20 14:36:17;;;;;;;13.65;2.28;;;;;;;18.71;37.07;101735.53;16113343;19;130151;-40
2023/03/20 14:42:07;;;;;;;20.15;2.92;;;;;;;18.68;37.12;101737.91;16109234;19;129471;-39
2023/03/20 14:47:47;;;;;;;15.30;2.88;;;;;;;18.65;36.61;101733.69;16111399;19;129581;-40
2023/03/20 14:53:19;;;;;;;17.08;2.33;;;;;;;18.62;36.92;101734.13;16111555;19;129286;-40
2023/03/20 14:59:05;;;;;;;10.05;1.92;;;;;;;18.60;37.14;101725.19;16110291;19;130207;-39
2023/03/20 15:04:40;;;;;;;19.95;2.72;;;;;;;18.57;37.41;101720.13;16110352;19;130004;-40
2023/03/20 15:10:04;;;;;;;13.35;2.95;;;;;;;18.56;37.67;101723.97;16121639;19;129538;-40
2023/03/20 15:15:30;;;;;;;13.00;2.10;;;;;;;18.56;37.51;101719.25;16121727;19;130932;-39
2023/03/20 15:20:55;;;;;;;12.00;2.20;;;;;;;18.54;38.12;101709.50;16127956;19;130130;-39
2023/03/20 15:26:19;;;;;;;15.47;2.80;;;;;;;18.54;38.01;101712.25;16126605;19;131140;-39
2023/03/20 15:31:41;;;;;;;10.75;3.05;;;;;;;18.53;38.19;101708.63;16121818;19;129307;-40
2023/03/20 15:37:03;;;;;;;11.48;2.22;;;;;;;18.52;38.46;101711.63;16120251;19;131808;-40
2023/03/20 15:42:26;;;;;;;7.38;2.53;;;;;;;18.57;39.87;101703.50;16123112;19;129884;-42
2023/03/20 15:47:48;;;;;;;12.63;3.00;;;;;;;18.67;40.97;101694.66;16120127;19;129437;-41
2023/03/20 15:53:17;;;;;;;15.20;3.30;;;;;;;18.75;41.23;101700.75;16122728;19;129526;-39
2023/03/20 15:58:41;;;;;;;13.70;2.67;;;;;;;18.82;41.35;101699.84;16121932;19;129504;-39
2023/03/20 16:04:03;;;;;;;12.70;2.60;;;;;;;18.85;41.51;101689.16;16122870;19;129256;-39
2023/03/20 16:09:26;;;;;;;8.82;2.90;;;;;;;18.90;41.31;101691.22;16120464;19;129841;-41
2023/03/20 16:14:50;;;;;;;9.30;2.47;;;;;;;18.91;41.48;101687.38;16120750;19;131812;-39
2023/03/20 16:20:14;;;;;;;15.13;3.08;;;;;;;18.93;41.60;101699.09;16118279;19;129755;-39
2023/03/20 16:25:36;;;;;;;7.72;2.42;;;;;;;18.90;41.59;101692.06;16120071;19;130859;-39
2023/03/20 16:31:08;;;;;;;9.02;2.70;;;;;;;18.95;41.71;101690.53;16124177;19;133569;-39
2023/03/20 16:36:33;;;;;;;14.68;2.78;;;;;;;18.98;41.39;101690.91;16117133;19;131567;-39
2023/03/20 16:42:26;;;;;;;7.93;2.23;;;;;;;19.00;41.71;101688.78;16124724;19;130222;-39
2023/03/20 16:47:49;;;;;;;14.23;2.53;;;;;;;19.10;41.78;101682.69;16118273;19;129427;-39
2023/03/20 16:53:14;;;;;;;13.48;3.10;;;;;;;19.23;41.71;101687.25;16119600;19;131597;-38
2023/03/20 16:58:39;;;;;;;;;;;;;;;19.31;41.81;101683.31;16119280;19;129541;-43
2023/03/20 17:04:22;;;;;;;18.80;3.33;;;;;;;19.41;41.20;101686.38;16121471;19;130442;-40
2023/03/20 17:10:16;;;;;;;20.45;3.90;;;;;;;19.41;41.54;101683.63;16115670;19;130402;-39
2023/03/20 17:15:38;;;;;;;13.65;4.30;;;;;;;19.47;41.03;101684.59;16116719;19;134553;-39
2023/03/20 17:21:00;;;;;;;12.38;4.07;;;;;;;19.51;41.16;101680.28;16114851;19;131312;-39
2023/03/20 17:26:22;;;;;;;19.38;4.32;;;;;;;19.51;41.31;101686.69;16118439;19;129676;-39
2023/03/20 17:31:44;;;;;;;14.88;3.90;;;;;;;19.51;41.48;101683.06;16115079;19;130866;-40
2023/03/20 17:37:12;;;;;;;15.93;3.45;;;;;;;19.57;41.43;101684.91;16114570;19;129083;-39
2023/03/20 17:42:34;;;;;;;18.45;3.75;;;;;;;19.69;40.90;101688.56;16113499;19;130000;-40
2023/03/20 17:47:56;;;;;;;15.27;3.45;;;;;;;19.85;40.73;101697.31;16111667;19;131012;-38
2023/03/20 17:53:24;;;;;;;19.10;4.00;;;;;;;19.94;40.38;101695.91;16110790;19;130474;-39
2023/03/20 17:58:45;;;;;;;13.88;3.83;;;;;;;20.01;40.48;101703.34;16113159;19;129719;-38
2023/03/20 18:04:07;;;;;;;24.73;4.68;;;;;;;20.05;40.46;101701.78;16110620;19;129554;-40
2023/03/20 18:09:32;;;;;;;21.93;4.17;;;;;;;20.04;40.72;101695.38;16110087;19;131294;-39
2023/03/20 18:14:54;;;;;;;21.60;4.18;;;;;;;20.02;40.37;101696.69;16115394;19;129516;-38
2023/03/20 18:20:24;;;;;;;21.13;3.97;;;;;;;19.99;40.58;101698.84;16108738;19;130438;-39
2023/03/20 18:25:46;;;;;;;19.38;3.90;;;;;;;19.96;40.77;101693.75;16111030;19;130210;-39
2023/03/20 18:31:09;;;;;;;18.17;4.15;;;;;;;19.92;40.93;101698.09;16109371;19;131321;-39
2023/03/20 18:36:31;;;;;;;20.40;4.45;;;;;;;19.86;41.33;101693.47;16112345;19;129408;-38
2023/03/20 18:41:53;;;;;;;21.48;4.47;;;;;;;19.79;40.79;101701.06;16115412;19;131196;-38
2023/03/20 18:47:15;;;;;;;29.98;3.53;;;;;;;19.75;41.38;101699.81;16131053;19;129915;-38
2023/03/20 18:52:37;;;;;;;26.35;3.97;;;;;;;19.68;41.25;101698.00;16131343;19;129748;-38
2023/03/20 18:58:02;;;;;;;30.27;4.65;;;;;;;19.64;41.50;101699.53;16123911;19;130230;-38
2023/03/20 19:03:24;;;;;;;;;;;;;;;19.57;42.02;101701.53;16121189;19;129870;-38
2023/03/20 19:08:47;;;;;;;17.08;3.10;;;;;;;19.54;41.86;101696.50;16121593;19;130938;-38
2023/03/20 19:14:09;;;;;;;19.50;3.70;;;;;;;19.50;41.76;101700.81;16123859;19;129724;-40
2023/03/20 19:19:30;;;;;;;13.18;3.42;;;;;;;19.45;42.21;101692.31;16121640;19;131008;-38
2023/03/20 19:24:52;;;;;;;18.63;3.42;;;;;;;19.51;42.35;101689.44;16115783;19;131752;-38
2023/03/20 19:30:26;;;;;;;19.75;3.67;;;;;;;19.69;42.38;101682.19;16122281;19;129733;-41
2023/03/20 19:35:47;;;;;;;21.25;3.97;;;;;;;19.84;42.38;101692.84;16118558;19;130471;-39
2023/03/20 19:41:27;;;;;;;12.90;3.40;;;;;;;19.98;42.07;101697.13;16116124;19;130324;-39
2023/03/20 19:46:49;;;;;;;13.60;2.88;;;;;;;20.07;41.95;101689.34;16122798;19;130210;-38
2023/03/20 19:52:27;;;;;;;14.80;3.22;;;;;;;20.21;41.94;101686.34;16120700;19;130346;-39
2023/03/20 19:57:50;;;;;;;26.83;4.25;;;;;;;20.47;41.16;101687.00;16114308;19;129861;-38
2023/03/20 20:03:18;;;;;;;12.55;2.65;;;;;;;20.84;41.08;101687.63;16123431;19;130924;-37
2023/03/20 20:08:40;;;;;;;13.32;3.60;;;;;;;21.19;40.46;101686.72;16122122;19;129054;-38
2023/03/20 20:14:09;;;;;;;16.95;2.47;;;;;;;21.51;39.79;101679.88;16122943;19;129867;-38
2023/03/20 20:19:35;;;;;;;22.02;3.38;;;;;;;21.69;39.91;101670.50;16122186;19;130697;-41
2023/03/20 20:24:57;;;;;;;18.77;2.97;;;;;;;21.82;39.42;101674.91;16122983;19;129801;-38
2023/03/20 20:30:19;;;;;;;15.93;2.90;;;;;;;21.87;39.33;101674.16;16120878;19;130778;-39
2023/03/20 20:35:41;;;;;;;18.92;3.10;;;;;;;21.82;39.52;101670.19;16118416;19;129461;-38
2023/03/20 20:41:24;;;;;;;12.52;2.78;;;;;;;21.70;39.38;101677.75;16119325;19;130111;-39
2023/03/20 20:46:46;;;;;;;10.77;2.50;;;;;;;21.58;39.45;101680.59;16116358;19;129405;-38
2023/03/20 20:52:08;;;;;;;11.25;1.88;;;;;;;21.45;40.08;101681.69;16117629;19;129765;-39
2023/03/20 20:57:31;;;;;;;15.93;2.65;;;;;;;21.31;39.84;101674.72;16116578;19;129474;-38
2023/03/20 21:02:52;;;;;;;13.50;3.13;;;;;;;21.17;40.02;101674.97;16119815;19;131316;-38
2023/03/20 21:08:17;;;;;;;13.90;2.28;;;;;;;21.05;40.42;101671.38;16120243;19;129746;-38
2023/03/20 21:13:39;;;;;;;16.50;2.30;;;;;;;20.90;40.69;101664.41;16116471;19;130371;-39
2023/03/20 21:19:01;;;;;;;9.23;1.83;;;;;;;20.80;40.39;101661.38;16115169;19;130908;-38
2023/03/20 21:24:23;;;;;;;15.38;2.67;;;;;;;20.69;40.89;101667.75;16113001;19;130664;-40
2023/03/20 21:29:56;;;;;;;16.35;3.05;;;;;;;20.56;40.73;101674.44;16113543;19;130270;-39
2023/03/20 21:35:18;;;;;;;11.82;1.80;;;;;;;20.45;40.64;101674.19;16107198;19;129774;-38
2023/03/20 21:40:40;;;;;;;9.93;2.35;;;;;;;20.36;40.94;101675.63;16107585;19;130351;-39
2023/03/20 21:46:03;;;;;;;15.15;3.05;;;;;;;20.29;41.00;101672.97;16112231;19;130485;-39
2023/03/20 21:51:45;;;;;;;9.30;2.15;;;;;;;20.20;41.00;101665.22;16110623;19;129395;-38
2023/03/20 21:57:27;;;;;;;9.60;1.83;;;;;;;20.13;40.66;101666.16;16109815;19;129631;-39
2023/03/20 22:03:09;;;;;;;13.50;1.95;;;;;;;20.05;40.73;101685.13;16116779;19;129575;-38
2023/03/20 22:08:49;;;;;;;6.55;1.73;;;;;;;19.98;40.75;101674.09;16110885;19;130715;-38
2023/03/20 22:14:31;;;;;;;9.25;2.38;;;;;;;19.92;40.78;101675.00;16107847;19;129919;-39
2023/03/20 22:20:13;;;;;;;6.32;1.58;;;;;;;19.84;41.25;101685.38;16107448;19;130047;-38
2023/03/20 22:25:54;;;;;;;7.18;1.88;;;;;;;19.78;40.94;101674.38;16108280;19;129787;-38
2023/03/20 22:31:36;;;;;;;6.88;1.73;;;;;;;19.72;40.88;101675.31;16106533;19;130970;-39
2023/03/20 22:37:18;;;;;;;7.07;2.10;;;;;;;19.65;41.06;101670.72;16112114;19;133424;-39
2023/03/20 22:43:00;;;;;;;7.85;2.13;;;;;;;19.60;40.90;101673.31;16107860;19;129787;-40
2023/03/20 22:48:43;;;;;;;6.72;1.63;;;;;;;19.57;40.97;101672.97;16108834;19;130552;-38
2023/03/20 22:54:05;;;;;;;9.57;1.42;;;;;;;19.52;41.15;101665.34;16108165;19;130104;-38
2023/03/20 22:59:27;;;;;;;10.10;1.60;;;;;;;19.49;40.87;101668.56;16106174;19;129956;-40
2023/03/20 23:04:51;;;;;;;4.85;1.65;;;;;;;19.46;41.20;101660.72;16113048;19;129588;-39
2023/03/20 23:10:13;;;;;;;7.28;1.80;;;;;;;19.44;40.84;101651.81;16106032;19;130268;-38
2023/03/20 23:15:34;;;;;;;12.38;1.95;;;;;;;19.40;41.18;101640.28;16107178;19;129837;-39
2023/03/20 23:20:57;;;;;;;6.30;1.50;;;;;;;19.36;40.81;101634.38;16107324;19;132410;-38
2023/03/20 23:26:20;;;;;;;5.57;1.50;;;;;;;19.33;40.84;101629.28;16104348;19;131028;-40
2023/03/20 23:31:42;;;;;;;7.03;1.55;;;;;;;19.29;40.89;101622.53;16118877;19;129429;-39
2023/03/20 23:37:04;;;;;;;6.00;1.67;;;;;;;19.27;41.20;101624.69;16121377;19;129446;-38
2023/03/20 23:42:26;;;;;;;4.55;1.40;;;;;;;19.25;41.35;101615.75;16119791;19;129719;-39
2023/03/20 23:47:51;;;;;;;5.32;1.35;;;;;;;19.21;41.22;101609.81;16121270;19;129615;-38
2023/03/20 23:53:15;;;;;;;5.60;1.35;;;;;;;19.19;41.19;101613.88;16121215;19;130794;-38
2023/03/20 23:58:43;;;;;;;6.22;1.45;;;;;;;19.17;41.10;101614.09;16119791;19;129284;-38
